createdAt,value
2019-03-03T00:00:44.196Z,19.13
2019-03-03T00:03:13.000Z,24.20
2019-03-03T00:05:41.596Z,18.45
2019-03-03T00:08:10.149Z,19.82
2019-03-03T00:10:38.736Z,17.40
2019-03-03T00:13:07.879Z,18.47
2019-03-03T00:15:36.475Z,17.98
2019-03-03T00:18:05.060Z,21.68
2019-03-03T00:20:33.690Z,15.55
2019-03-03T00:23:02.312Z,17.10
2019-03-03T00:25:30.939Z,20.17
2019-03-03T00:27:59.679Z,18.45
2019-03-03T00:30:28.290Z,14.87
2019-03-03T00:32:57.001Z,21.77
2019-03-03T00:35:25.639Z,23.92
2019-03-03T00:38:02.000Z,19.23
2019-03-03T00:40:32.172Z,15.20
2019-03-03T00:43:05.640Z,12.63
2019-03-03T00:45:38.616Z,17.90
2019-03-03T00:48:11.828Z,14.70
2019-03-03T00:50:58.178Z,18.53
2019-03-03T00:53:28.436Z,12.07
2019-03-03T00:56:01.651Z,13.72
2019-03-03T00:58:34.270Z,13.95
2019-03-03T01:01:07.454Z,14.13
2019-03-03T01:03:55.578Z,14.30
2019-03-03T01:06:41.010Z,15.03
2019-03-03T01:09:20.199Z,12.63
2019-03-03T01:11:59.689Z,14.38
2019-03-03T01:14:32.917Z,11.00
2019-03-03T01:17:09.142Z,12.67
2019-03-03T01:19:39.402Z,15.13
2019-03-03T01:22:15.647Z,13.60
2019-03-03T01:24:45.904Z,12.20
2019-03-03T01:27:14.871Z,14.53
2019-03-03T01:29:43.499Z,13.58
2019-03-03T01:32:12.226Z,19.55
2019-03-03T01:34:40.843Z,15.05
2019-03-03T01:37:09.443Z,10.08
2019-03-03T01:39:38.067Z,10.40
2019-03-03T01:42:06.615Z,14.47
2019-03-03T01:44:35.172Z,12.45
2019-03-03T01:47:03.972Z,15.90
2019-03-03T01:49:32.533Z,15.48
2019-03-03T01:52:01.117Z,8.93
2019-03-03T01:54:29.586Z,10.85
2019-03-03T01:56:58.111Z,8.33
2019-03-03T01:59:26.745Z,12.57
2019-03-03T02:01:55.443Z,12.93
2019-03-03T02:04:24.033Z,12.95
2019-03-03T02:06:52.606Z,9.13
2019-03-03T02:09:21.334Z,10.73
2019-03-03T02:11:50.028Z,12.40
2019-03-03T02:14:18.687Z,11.93
2019-03-03T02:16:47.252Z,11.78
2019-03-03T02:19:15.824Z,13.47
2019-03-03T02:21:44.401Z,12.65
2019-03-03T02:24:12.993Z,9.53
2019-03-03T02:26:41.600Z,12.75
2019-03-03T02:29:10.190Z,15.68
2019-03-03T02:31:38.829Z,10.08
2019-03-03T02:34:07.420Z,10.15
2019-03-03T02:36:35.882Z,13.62
2019-03-03T02:39:07.493Z,13.68
2019-03-03T02:41:36.093Z,12.18
2019-03-03T02:44:04.775Z,10.05
2019-03-03T02:46:33.304Z,13.35
2019-03-03T02:49:01.865Z,13.32
2019-03-03T02:51:30.398Z,16.43
2019-03-03T02:53:59.087Z,11.43
2019-03-03T02:56:27.675Z,9.88
2019-03-03T02:58:56.239Z,11.53
2019-03-03T03:01:29.463Z,10.80
2019-03-03T03:03:58.023Z,10.85
2019-03-03T03:06:30.853Z,12.13
2019-03-03T03:09:10.078Z,12.65
2019-03-03T03:11:40.563Z,13.72
2019-03-03T03:14:25.801Z,13.98
2019-03-03T03:17:08.087Z,11.00
2019-03-03T03:19:54.697Z,12.03
2019-03-03T03:22:43.345Z,12.80
2019-03-03T03:25:16.394Z,12.03
2019-03-03T03:27:58.382Z,11.55
2019-03-03T03:30:44.814Z,14.68
2019-03-03T03:33:23.825Z,9.55
2019-03-03T03:35:54.116Z,12.82
2019-03-03T03:38:27.114Z,12.13
2019-03-03T03:41:15.458Z,14.43
2019-03-03T03:43:45.692Z,18.75
2019-03-03T03:46:32.103Z,12.05
2019-03-03T03:49:11.268Z,12.03
2019-03-03T03:51:44.087Z,13.57
2019-03-03T03:54:30.622Z,13.38
2019-03-03T03:57:00.862Z,17.12
2019-03-03T03:59:33.904Z,10.28
2019-03-03T04:02:13.054Z,12.23
2019-03-03T04:04:46.217Z,14.28
2019-03-03T04:07:22.335Z,16.37
2019-03-03T04:10:01.653Z,17.35
2019-03-03T04:12:31.978Z,16.07
2019-03-03T04:15:02.191Z,13.90
2019-03-03T04:17:34.967Z,14.20
2019-03-03T04:20:22.286Z,17.40
2019-03-03T04:23:08.848Z,15.48
2019-03-03T04:25:55.239Z,11.22
2019-03-03T04:28:25.403Z,17.07
2019-03-03T04:30:58.364Z,12.28
2019-03-03T04:33:44.591Z,15.00
2019-03-03T04:36:23.594Z,15.00
2019-03-03T04:38:59.587Z,20.65
2019-03-03T04:41:32.581Z,10.60
2019-03-03T04:44:05.522Z,17.17
2019-03-03T04:46:44.534Z,11.80
2019-03-03T04:49:14.688Z,8.85
2019-03-03T04:51:57.040Z,16.67
2019-03-03T04:54:33.079Z,14.78
2019-03-03T04:57:09.032Z,17.65
2019-03-03T04:59:42.028Z,19.77
2019-03-03T05:02:20.867Z,11.33
2019-03-03T05:04:53.946Z,16.00
2019-03-03T05:07:32.701Z,18.10
2019-03-03T05:10:02.940Z,16.48
2019-03-03T05:12:49.362Z,22.82
2019-03-03T05:15:25.342Z,17.37
2019-03-03T05:18:04.610Z,15.00
2019-03-03T05:20:40.719Z,16.80
2019-03-03T05:23:09.436Z,13.03
2019-03-03T05:25:38.117Z,15.60
2019-03-03T05:28:06.708Z,15.63
2019-03-03T05:30:35.390Z,17.50
2019-03-03T05:33:04.013Z,21.27
2019-03-03T05:35:32.608Z,14.33
2019-03-03T05:38:01.204Z,18.98
2019-03-03T05:40:29.744Z,16.70
2019-03-03T05:42:58.399Z,14.53
2019-03-03T05:45:27.055Z,17.12
2019-03-03T05:47:55.506Z,17.52
2019-03-03T05:50:24.026Z,19.70
2019-03-03T05:52:52.628Z,17.67
2019-03-03T05:55:21.154Z,17.75
2019-03-03T05:57:49.749Z,18.67
2019-03-03T06:00:18.342Z,16.87
2019-03-03T06:02:46.935Z,17.45
2019-03-03T06:05:15.482Z,19.17
2019-03-03T06:07:44.121Z,18.60
2019-03-03T06:10:13.085Z,20.25
2019-03-03T06:12:41.607Z,18.35
2019-03-03T06:15:13.069Z,20.40
2019-03-03T06:17:41.671Z,16.42
2019-03-03T06:20:12.190Z,19.82
2019-03-03T06:22:40.779Z,19.60
2019-03-03T06:25:10.688Z,14.58
2019-03-03T06:27:39.275Z,16.85
2019-03-03T06:30:11.076Z,20.05
2019-03-03T06:32:39.590Z,18.25
2019-03-03T06:35:09.896Z,15.90
2019-03-03T06:37:38.489Z,22.93
2019-03-03T06:40:09.382Z,20.90
2019-03-03T06:42:37.916Z,19.02
2019-03-03T06:45:12.597Z,21.45
2019-03-03T06:47:41.191Z,24.25
2019-03-03T06:50:11.793Z,22.87
2019-03-03T06:52:40.464Z,16.10
2019-03-03T06:55:09.385Z,17.62
2019-03-03T06:57:38.150Z,26.93
2019-03-03T07:00:12.971Z,21.07
2019-03-03T07:02:41.567Z,18.85
2019-03-03T07:05:11.390Z,19.50
2019-03-03T07:07:40.085Z,22.65
2019-03-03T07:10:13.768Z,16.33
2019-03-03T07:12:42.402Z,19.90
2019-03-03T07:15:16.158Z,17.52
2019-03-03T07:17:44.761Z,24.30
2019-03-03T07:20:15.186Z,20.50
2019-03-03T07:22:43.777Z,22.13
2019-03-03T07:25:13.775Z,17.92
2019-03-03T07:27:42.366Z,27.82
2019-03-03T07:30:15.524Z,21.33
2019-03-03T07:32:54.495Z,27.85
2019-03-03T07:35:23.014Z,19.23
2019-03-03T07:37:51.608Z,23.45
2019-03-03T07:40:20.215Z,20.47
2019-03-03T07:42:48.740Z,25.48
2019-03-03T07:45:17.259Z,20.20
2019-03-03T07:47:45.710Z,24.67
2019-03-03T07:50:14.362Z,23.43
2019-03-03T07:52:43.054Z,15.70
2019-03-03T07:55:11.648Z,19.12
2019-03-03T07:57:40.234Z,23.22
2019-03-03T08:00:13.596Z,20.87
2019-03-03T08:02:42.186Z,21.60
2019-03-03T08:05:11.516Z,27.75
2019-03-03T08:07:40.377Z,19.57
2019-03-03T08:10:11.428Z,17.17
2019-03-03T08:12:40.023Z,24.65
2019-03-03T08:15:11.291Z,23.98
2019-03-03T08:17:39.840Z,28.57
2019-03-03T08:20:11.046Z,27.55
2019-03-03T08:22:39.665Z,21.75
2019-03-03T08:25:09.877Z,28.25
2019-03-03T08:27:38.565Z,21.13
2019-03-03T08:30:20.005Z,24.27
2019-03-03T08:32:48.532Z,24.07
2019-03-03T08:35:25.429Z,20.40
2019-03-03T08:37:54.023Z,23.47
2019-03-03T08:40:22.636Z,14.93
2019-03-03T08:42:52.866Z,18.30
2019-03-03T08:45:28.831Z,22.83
2019-03-03T08:47:59.055Z,14.63
2019-03-03T08:50:29.335Z,16.12
2019-03-03T08:53:02.223Z,26.05
2019-03-03T08:55:32.363Z,11.87
2019-03-03T08:58:02.590Z,16.48
2019-03-03T09:00:35.545Z,17.10
2019-03-03T09:03:21.062Z,15.28
2019-03-03T09:05:51.246Z,15.75
2019-03-03T09:08:24.264Z,15.75
2019-03-03T09:10:57.087Z,16.97
2019-03-03T09:13:27.172Z,12.13
2019-03-03T09:16:03.489Z,17.40
2019-03-03T09:18:39.697Z,23.12
2019-03-03T09:21:12.883Z,18.02
2019-03-03T09:23:59.241Z,13.53
2019-03-03T09:26:31.986Z,16.02
2019-03-03T09:29:02.153Z,13.75
2019-03-03T09:31:38.025Z,14.40
2019-03-03T09:34:13.674Z,18.42
2019-03-03T09:36:43.904Z,11.85
2019-03-03T09:39:14.232Z,14.70
2019-03-03T09:41:47.720Z,11.53
2019-03-03T09:44:34.392Z,13.67
2019-03-03T09:47:20.731Z,16.48
2019-03-03T09:49:57.179Z,10.35
2019-03-03T09:52:42.805Z,10.70
2019-03-03T09:55:29.423Z,14.30
2019-03-03T09:58:02.875Z,10.35
2019-03-03T10:00:33.106Z,15.72
2019-03-03T10:03:19.639Z,12.05
2019-03-03T10:06:04.999Z,9.80
2019-03-03T10:08:35.232Z,10.30
2019-03-03T10:11:21.354Z,13.83
2019-03-03T10:13:51.508Z,8.98
2019-03-03T10:16:21.679Z,11.60
2019-03-03T10:18:54.477Z,10.35
2019-03-03T10:21:24.710Z,9.83
2019-03-03T10:24:03.578Z,13.50
2019-03-03T10:26:51.911Z,14.28
2019-03-03T10:29:22.075Z,10.97
2019-03-03T10:32:04.624Z,10.43
2019-03-03T10:34:49.775Z,10.38
2019-03-03T10:37:19.970Z,10.37
2019-03-03T10:40:08.148Z,11.22
2019-03-03T10:42:40.889Z,15.48
2019-03-03T10:45:14.595Z,13.04
2019-03-03T10:47:47.223Z,11.67
2019-03-03T10:50:20.498Z,11.50
2019-03-03T10:52:56.821Z,14.20
2019-03-03T10:55:33.135Z,11.28
2019-03-03T10:58:12.302Z,12.43
2019-03-03T11:00:59.527Z,15.77
2019-03-03T11:03:35.867Z,10.90
2019-03-03T11:06:08.967Z,14.27
2019-03-03T11:08:51.386Z,9.77
2019-03-03T11:11:24.537Z,14.07
2019-03-03T11:13:58.128Z,16.55
2019-03-03T11:16:28.375Z,17.20
2019-03-03T11:18:58.577Z,15.20
2019-03-03T11:21:34.753Z,17.70
2019-03-03T11:24:07.855Z,15.48
2019-03-03T11:26:53.187Z,15.25
2019-03-03T11:29:26.131Z,18.87
2019-03-03T11:31:59.294Z,18.12
2019-03-03T11:34:35.446Z,17.12
2019-03-03T11:37:14.041Z,18.05
2019-03-03T11:39:43.989Z,19.10
2019-03-03T11:42:14.238Z,18.32
2019-03-03T11:44:47.450Z,14.10
2019-03-03T11:47:21.044Z,14.23
2019-03-03T11:50:00.314Z,15.13
2019-03-03T11:52:33.643Z,12.23
2019-03-03T11:55:06.746Z,12.60
2019-03-03T11:57:48.905Z,14.87
2019-03-03T12:00:35.399Z,12.17
2019-03-03T12:03:12.569Z,14.23
2019-03-03T12:05:48.952Z,12.75
2019-03-03T12:08:36.428Z,11.97
2019-03-03T12:11:18.901Z,12.30
2019-03-03T12:13:49.068Z,11.38
2019-03-03T12:16:19.318Z,10.63
2019-03-03T12:19:05.903Z,10.50
2019-03-03T12:21:41.772Z,7.25
2019-03-03T12:24:21.047Z,9.53
2019-03-03T12:26:53.765Z,8.53
2019-03-03T12:29:35.855Z,8.70
2019-03-03T12:32:09.066Z,9.13
2019-03-03T12:34:48.387Z,8.28
2019-03-03T12:37:19.884Z,7.12
2019-03-03T12:39:52.695Z,9.20
2019-03-03T12:42:28.677Z,9.35
2019-03-03T12:45:04.457Z,9.83
2019-03-03T12:47:34.550Z,9.93
2019-03-03T12:50:14.023Z,12.07
2019-03-03T12:52:49.921Z,8.75
2019-03-03T12:55:20.087Z,7.97
2019-03-03T12:57:53.025Z,10.45
2019-03-03T13:00:23.112Z,8.08
2019-03-03T13:03:09.411Z,13.62
2019-03-03T13:05:45.630Z,8.83
2019-03-03T13:08:15.895Z,10.40
2019-03-03T13:10:46.166Z,8.80
2019-03-03T13:13:19.425Z,8.68
2019-03-03T13:16:04.804Z,8.90
2019-03-03T13:18:53.525Z,10.40
2019-03-03T13:21:35.688Z,12.03
2019-03-03T13:24:06.274Z,12.37
2019-03-03T13:26:39.415Z,15.70
2019-03-03T13:29:09.790Z,15.10
2019-03-03T13:31:39.960Z,10.25
2019-03-03T13:34:22.290Z,11.95
2019-03-03T13:36:55.177Z,13.25
2019-03-03T13:39:25.483Z,12.83
2019-03-03T13:41:58.825Z,11.50
2019-03-03T13:44:27.421Z,10.67
2019-03-03T13:46:56.124Z,8.68
2019-03-03T13:49:24.737Z,6.70
2019-03-03T13:51:53.265Z,12.68
2019-03-03T13:54:21.905Z,13.10
2019-03-03T13:56:50.428Z,9.20
2019-03-03T13:59:18.961Z,10.48
2019-03-03T14:01:47.594Z,11.93
2019-03-03T14:04:16.202Z,9.80
2019-03-03T14:06:44.762Z,11.00
2019-03-03T14:09:13.566Z,9.78
2019-03-03T14:11:42.167Z,13.65
2019-03-03T14:14:10.697Z,10.30
2019-03-03T14:16:39.466Z,9.93
2019-03-03T14:19:08.588Z,11.65
2019-03-03T14:21:37.118Z,9.60
2019-03-03T14:24:06.108Z,12.35
2019-03-03T14:26:34.704Z,9.47
2019-03-03T14:29:03.563Z,11.85
2019-03-03T14:31:32.191Z,14.87
2019-03-03T14:34:00.832Z,11.43
2019-03-03T14:36:29.733Z,15.30
2019-03-03T14:38:58.373Z,12.80
2019-03-03T14:41:26.990Z,14.38
2019-03-03T14:43:55.741Z,15.43
2019-03-03T14:46:24.348Z,15.30
2019-03-03T14:48:52.807Z,16.23
2019-03-03T14:51:21.544Z,17.75
2019-03-03T14:53:50.156Z,13.27
2019-03-03T14:56:18.668Z,16.65
2019-03-03T14:58:47.215Z,15.17
2019-03-03T15:01:15.818Z,12.35
2019-03-03T15:03:44.544Z,15.55
2019-03-03T15:06:13.174Z,20.23
2019-03-03T15:08:41.769Z,19.17
2019-03-03T15:11:10.468Z,16.45
2019-03-03T15:13:38.998Z,12.45
2019-03-03T15:16:07.627Z,17.02
2019-03-03T15:18:36.318Z,14.43
2019-03-03T15:21:05.037Z,18.20
2019-03-03T15:23:33.635Z,20.43
2019-03-03T15:26:02.373Z,17.77
2019-03-03T15:28:31.167Z,16.60
2019-03-03T15:31:00.031Z,16.20
2019-03-03T15:33:28.648Z,14.73
2019-03-03T15:35:57.283Z,16.42
2019-03-03T15:38:25.981Z,21.17
2019-03-03T15:40:54.711Z,22.82
2019-03-03T15:43:23.416Z,14.68
2019-03-03T15:45:52.017Z,19.65
2019-03-03T15:48:20.620Z,18.17
2019-03-03T15:50:49.419Z,19.55
2019-03-03T15:53:18.409Z,19.55
2019-03-03T15:55:47.090Z,19.27
2019-03-03T15:58:15.619Z,16.00
2019-03-03T16:00:44.259Z,19.63
2019-03-03T16:03:12.950Z,18.60
2019-03-03T16:05:41.581Z,17.55
2019-03-03T16:08:10.108Z,16.65
2019-03-03T16:10:38.803Z,17.82
2019-03-03T16:13:07.634Z,21.55
2019-03-03T16:15:36.282Z,17.98
2019-03-03T16:18:05.243Z,16.90
2019-03-03T16:20:33.840Z,21.35
2019-03-03T16:23:12.911Z,16.07
2019-03-03T16:25:41.742Z,18.67
2019-03-03T16:28:10.752Z,20.37
2019-03-03T16:30:39.494Z,19.50
2019-03-03T16:33:08.088Z,17.37
2019-03-03T16:35:37.081Z,16.73
2019-03-03T16:38:05.696Z,16.20
2019-03-03T16:40:39.659Z,16.42
2019-03-03T16:43:04.798Z,16.90
2019-03-03T16:45:33.626Z,19.15
2019-03-03T16:48:02.180Z,20.10
2019-03-03T16:50:30.737Z,18.92
2019-03-03T16:52:59.336Z,13.03
2019-03-03T16:55:27.931Z,19.27
2019-03-03T16:57:56.642Z,20.50
2019-03-03T17:00:26.256Z,17.75
2019-03-03T17:02:54.979Z,19.82
2019-03-03T17:05:27.594Z,20.15
2019-03-03T17:07:56.394Z,16.37
2019-03-03T17:10:24.994Z,22.25
2019-03-03T17:12:53.598Z,18.55
2019-03-03T17:15:24.239Z,16.77
2019-03-03T17:17:52.877Z,14.47
2019-03-03T17:20:21.534Z,19.10
2019-03-03T17:22:50.157Z,18.20
2019-03-03T17:25:23.735Z,19.92
2019-03-03T17:27:52.275Z,10.67
2019-03-03T17:30:23.467Z,15.00
2019-03-03T17:32:52.158Z,13.67
2019-03-03T17:35:20.982Z,18.65
2019-03-03T17:37:50.012Z,15.72
2019-03-03T17:40:25.795Z,17.30
2019-03-03T17:42:54.449Z,14.30
2019-03-03T17:45:23.857Z,20.65
2019-03-03T17:47:52.689Z,21.48
2019-03-03T17:50:29.171Z,18.30
2019-03-03T17:52:57.764Z,13.70
2019-03-03T17:55:26.502Z,16.12
2019-03-03T17:57:55.247Z,17.02
2019-03-03T18:00:26.796Z,13.97
2019-03-03T18:02:55.773Z,13.53
2019-03-03T18:05:24.367Z,18.42
2019-03-03T18:07:53.110Z,15.27
2019-03-03T18:10:21.884Z,17.23
2019-03-03T18:12:50.613Z,14.55
2019-03-03T18:15:19.220Z,17.60
2019-03-03T18:17:50.287Z,15.72
2019-03-03T18:20:19.773Z,15.72
2019-03-03T18:22:48.696Z,13.97
2019-03-03T18:25:18.686Z,15.78
2019-03-03T18:27:47.335Z,15.68
2019-03-03T18:30:29.301Z,11.48
2019-03-03T18:32:57.963Z,17.35
2019-03-03T18:35:26.483Z,15.90
2019-03-03T18:37:55.080Z,16.12
2019-03-03T18:40:24.721Z,16.63
2019-03-03T18:42:53.595Z,13.98
2019-03-03T18:45:23.307Z,14.83
2019-03-03T18:47:52.099Z,13.22
2019-03-03T18:50:28.716Z,17.07
2019-03-03T18:52:59.670Z,16.07
2019-03-03T18:55:27.717Z,18.80
2019-03-03T18:57:56.349Z,14.73
2019-03-03T19:00:32.034Z,15.68
2019-03-03T19:03:01.074Z,16.00
2019-03-03T19:05:29.690Z,16.87
2019-03-03T19:07:58.425Z,12.43
2019-03-03T19:10:40.754Z,18.20
2019-03-03T19:13:09.641Z,19.60
2019-03-03T19:15:38.321Z,12.65
2019-03-03T19:18:07.073Z,13.85
2019-03-03T19:20:36.405Z,12.05
2019-03-03T19:23:05.107Z,12.15
2019-03-03T19:25:33.645Z,13.83
2019-03-03T19:28:02.304Z,13.98
2019-03-03T19:30:31.048Z,17.23
2019-03-03T19:33:05.568Z,15.95
2019-03-03T19:38:02.029Z,17.67
2019-03-03T19:40:30.641Z,14.55
2019-03-03T19:42:59.316Z,15.93
2019-03-03T19:45:36.383Z,19.90
2019-03-03T19:48:06.403Z,13.85
2019-03-03T19:50:35.209Z,12.90
2019-03-03T19:53:04.332Z,13.38
2019-03-03T19:55:32.985Z,14.38
2019-03-03T19:58:01.680Z,12.27
2019-03-03T20:00:38.739Z,13.25
2019-03-03T20:03:06.173Z,12.98
2019-03-03T20:05:34.776Z,16.30
2019-03-03T20:08:03.745Z,16.23
2019-03-03T20:10:32.647Z,16.50
2019-03-03T20:13:01.314Z,12.10
2019-03-03T20:15:30.044Z,11.25
2019-03-03T20:17:58.712Z,16.10
2019-03-03T20:20:27.798Z,11.68
2019-03-03T20:22:56.810Z,12.98
2019-03-03T20:25:25.742Z,13.60
2019-03-03T20:27:54.393Z,14.58
2019-03-03T20:30:24.314Z,14.60
2019-03-03T20:32:52.919Z,15.47
2019-03-03T20:35:21.656Z,10.05
2019-03-03T20:37:50.257Z,14.33
2019-03-03T20:40:20.694Z,9.03
2019-03-03T20:42:49.439Z,12.10
2019-03-03T20:45:21.418Z,14.55
2019-03-03T20:47:50.020Z,13.50
2019-03-03T20:50:20.392Z,9.70
2019-03-03T20:52:49.799Z,11.08
2019-03-03T20:55:20.511Z,12.75
2019-03-03T20:57:49.214Z,11.85
2019-03-03T21:00:20.327Z,8.67
2019-03-03T21:02:49.046Z,11.97
2019-03-03T21:05:17.919Z,9.95
2019-03-03T21:07:51.267Z,10.13
2019-03-03T21:10:24.202Z,11.48
2019-03-03T21:12:52.869Z,9.90
2019-03-03T21:15:22.077Z,12.47
2019-03-03T21:17:50.686Z,16.32
2019-03-03T21:20:20.709Z,9.25
2019-03-03T21:22:49.543Z,9.87
2019-03-03T21:25:19.810Z,9.48
2019-03-03T21:27:48.512Z,13.13
2019-03-03T21:30:25.079Z,14.47
2019-03-03T21:32:53.974Z,9.30
2019-03-03T21:35:23.268Z,8.33
2019-03-03T21:37:52.283Z,13.63
2019-03-03T21:40:21.940Z,9.93
2019-03-03T21:42:50.640Z,12.00
2019-03-03T21:45:21.622Z,11.68
2019-03-03T21:47:50.407Z,9.25
2019-03-03T21:50:20.804Z,8.08
2019-03-03T21:52:49.420Z,8.87
2019-03-03T21:55:18.012Z,8.83
2019-03-03T21:57:46.611Z,9.23
2019-03-03T22:00:18.263Z,10.20
2019-03-03T22:02:47.012Z,11.07
2019-03-03T22:05:15.631Z,11.90
2019-03-03T22:07:44.256Z,9.85
2019-03-03T22:10:12.976Z,7.10
2019-03-03T22:12:41.567Z,6.55
2019-03-03T22:15:12.497Z,9.53
2019-03-03T22:17:41.438Z,7.85
2019-03-03T22:20:11.060Z,12.85
2019-03-03T22:22:39.658Z,8.70
2019-03-03T22:25:10.486Z,8.93
2019-03-03T22:27:39.098Z,11.97
2019-03-03T22:30:10.771Z,9.75
2019-03-03T22:32:39.370Z,9.33
2019-03-03T22:35:08.795Z,10.75
2019-03-03T22:37:37.318Z,7.97
2019-03-03T22:40:22.906Z,7.20
2019-03-03T22:42:51.611Z,6.97
2019-03-03T22:45:20.209Z,8.67
2019-03-03T22:47:48.845Z,8.25
2019-03-03T22:50:18.671Z,7.95
2019-03-03T22:52:47.257Z,8.37
2019-03-03T22:55:20.193Z,7.03
2019-03-03T22:57:48.987Z,8.38
2019-03-03T23:00:46.238Z,9.78
2019-03-03T23:03:32.745Z,7.75
2019-03-03T23:06:09.829Z,6.40
2019-03-03T23:08:50.143Z,8.58
2019-03-03T23:11:33.455Z,12.93
2019-03-03T23:14:13.923Z,8.88
2019-03-03T23:17:09.659Z,8.70
2019-03-03T23:20:02.065Z,6.33
2019-03-03T23:22:46.816Z,8.13
2019-03-03T23:25:27.149Z,7.07
2019-03-03T23:27:55.619Z,6.67
2019-03-03T23:30:24.218Z,5.28
2019-03-03T23:32:53.207Z,8.25
2019-03-03T23:35:21.884Z,6.35
2019-03-03T23:37:50.479Z,5.28
2019-03-03T23:40:19.488Z,7.35
2019-03-03T23:42:48.083Z,6.30
2019-03-03T23:45:16.625Z,7.95
2019-03-03T23:47:45.150Z,6.85
2019-03-03T23:50:13.849Z,6.25
2019-03-03T23:52:42.536Z,8.98
2019-03-03T23:55:12.763Z,9.63
2019-03-03T23:57:41.215Z,8.35
